createdAt,value
2023-05-10T00:00:57.263Z,69.22
2023-05-10T00:03:24.544Z,65.80
2023-05-10T00:05:51.841Z,67.57
2023-05-10T00:08:19.089Z,66.60
2023-05-10T00:10:46.568Z,70.60
2023-05-10T00:13:13.827Z,72.93
2023-05-10T00:15:41.167Z,66.40
2023-05-10T00:18:08.602Z,72.47
2023-05-10T00:20:35.388Z,65.60
2023-05-10T00:23:02.687Z,68.07
2023-05-10T00:25:30.168Z,60.42
2023-05-10T00:27:58.169Z,69.00
2023-05-10T00:30:25.437Z,72.17
2023-05-10T00:32:52.859Z,73.13
2023-05-10T00:35:20.368Z,84.47
2023-05-10T00:37:48.866Z,70.65
2023-05-10T00:40:16.088Z,65.03
2023-05-10T00:42:47.264Z,73.77
2023-05-10T00:45:14.556Z,72.70
2023-05-10T00:47:41.915Z,65.32
2023-05-10T00:50:10.325Z,67.20
2023-05-10T00:52:37.594Z,59.80
2023-05-10T00:55:05.729Z,77.43
2023-05-10T00:57:33.188Z,76.32
2023-05-10T01:00:00.622Z,84.22
2023-05-10T01:02:28.463Z,79.97
2023-05-10T01:04:57.477Z,67.60
2023-05-10T01:07:24.771Z,77.97
2023-05-10T01:09:51.610Z,77.25
2023-05-10T01:12:18.878Z,80.75
2023-05-10T01:14:46.387Z,60.75
2023-05-10T01:17:14.298Z,80.30
2023-05-10T01:19:41.981Z,71.43
2023-05-10T01:22:52.617Z,82.43
2023-05-10T01:25:30.415Z,83.45
2023-05-10T01:27:57.688Z,79.30
2023-05-10T01:30:45.477Z,80.53
2023-05-10T01:33:12.766Z,79.70
2023-05-10T01:36:19.345Z,76.70
2023-05-10T01:39:00.029Z,84.53
2023-05-10T01:41:40.715Z,80.47
2023-05-10T01:44:17.300Z,78.78
2023-05-10T01:46:44.665Z,84.97
2023-05-10T01:49:35.729Z,80.32
2023-05-10T01:52:20.499Z,77.18
2023-05-10T01:55:16.130Z,68.75
2023-05-10T01:57:45.660Z,72.30
2023-05-10T02:00:14.481Z,68.73
2023-05-10T02:02:46.143Z,80.88
2023-05-10T02:05:15.546Z,82.68
2023-05-10T02:07:43.067Z,78.32
2023-05-10T02:10:12.450Z,88.75
2023-05-10T02:12:43.243Z,90.27
2023-05-10T02:15:12.562Z,73.72
2023-05-10T02:17:40.360Z,95.53
2023-05-10T02:20:08.773Z,89.22
2023-05-10T02:22:36.868Z,92.65
2023-05-10T02:25:05.107Z,93.83
2023-05-10T02:27:32.688Z,103.07
2023-05-10T02:30:00.421Z,109.90
2023-05-10T02:32:28.832Z,123.93
2023-05-10T02:34:57.950Z,112.20
2023-05-10T02:37:26.352Z,119.13
2023-05-10T02:39:56.193Z,112.45
2023-05-10T02:42:28.901Z,117.70
2023-05-10T02:45:02.028Z,118.47
2023-05-10T02:47:30.171Z,113.90
2023-05-10T02:49:57.560Z,129.37
2023-05-10T02:52:35.813Z,99.78
2023-05-10T02:55:05.878Z,116.30
2023-05-10T02:57:39.786Z,125.63
2023-05-10T03:00:07.381Z,111.72
2023-05-10T03:02:35.279Z,116.10
2023-05-10T03:05:02.528Z,110.57
2023-05-10T03:07:29.404Z,105.25
2023-05-10T03:09:56.790Z,99.43
2023-05-10T03:12:25.151Z,104.35
2023-05-10T03:14:52.405Z,98.90
2023-05-10T03:17:31.689Z,108.25
2023-05-10T03:20:05.301Z,98.90
2023-05-10T03:22:37.945Z,90.63
2023-05-10T03:25:11.790Z,84.25
2023-05-10T03:27:44.898Z,88.87
2023-05-10T03:30:13.526Z,89.30
2023-05-10T03:32:40.979Z,77.25
2023-05-10T03:35:13.027Z,91.13
2023-05-10T03:37:40.537Z,86.18
2023-05-10T03:40:08.351Z,86.83
2023-05-10T03:42:37.357Z,94.65
2023-05-10T03:45:04.650Z,79.05
2023-05-10T03:47:31.722Z,82.80
2023-05-10T03:49:59.580Z,85.05
2023-05-10T03:52:26.616Z,87.03
2023-05-10T03:54:53.498Z,79.65
2023-05-10T03:57:20.748Z,84.25
2023-05-10T03:59:47.998Z,73.63
2023-05-10T04:02:15.536Z,87.97
2023-05-10T04:04:42.995Z,91.00
2023-05-10T04:07:11.376Z,93.90
2023-05-10T04:09:38.206Z,82.85
2023-05-10T04:12:05.568Z,89.15
2023-05-10T04:14:32.970Z,92.63
2023-05-10T04:17:00.455Z,101.67
2023-05-10T04:19:31.195Z,96.18
2023-05-10T04:21:58.798Z,102.95
2023-05-10T04:24:26.491Z,111.10
2023-05-10T04:26:54.694Z,105.72
2023-05-10T04:29:23.353Z,105.17
2023-05-10T04:31:50.531Z,100.18
2023-05-10T04:34:17.834Z,109.90
2023-05-10T04:36:45.210Z,112.30
2023-05-10T04:39:12.413Z,109.85
2023-05-10T04:41:39.820Z,123.00
2023-05-10T04:44:07.242Z,96.15
2023-05-10T04:46:34.179Z,110.72
2023-05-10T04:49:01.066Z,99.75
2023-05-10T04:51:28.476Z,113.82
2023-05-10T04:54:05.345Z,126.80
2023-05-10T04:56:34.342Z,110.05
2023-05-10T04:59:01.802Z,120.82
2023-05-10T05:01:29.230Z,126.45
2023-05-10T05:03:56.746Z,123.68
2023-05-10T05:06:25.768Z,119.33
2023-05-10T05:08:53.167Z,101.60
2023-05-10T05:11:20.695Z,114.32
2023-05-10T05:13:48.104Z,108.43
2023-05-10T05:16:15.313Z,119.93
2023-05-10T05:18:42.630Z,115.10
2023-05-10T05:21:19.552Z,106.63
2023-05-10T05:23:47.205Z,106.78
2023-05-10T05:26:14.047Z,100.53
2023-05-10T05:28:40.944Z,98.82
2023-05-10T05:31:08.994Z,118.23
2023-05-10T05:33:36.440Z,89.63
2023-05-10T05:36:05.215Z,105.38
2023-05-10T05:38:32.736Z,96.80
2023-05-10T05:40:59.983Z,94.95
2023-05-10T05:43:27.238Z,93.20
2023-05-10T05:45:55.009Z,75.18
2023-05-10T05:48:22.439Z,79.57
2023-05-10T05:50:49.651Z,84.47
2023-05-10T05:53:16.966Z,89.05
2023-05-10T05:56:01.884Z,78.40
2023-05-10T05:58:29.111Z,73.10
2023-05-10T06:00:56.562Z,59.75
2023-05-10T06:03:23.873Z,63.28
2023-05-10T06:05:51.217Z,68.65
2023-05-10T06:08:18.509Z,73.37
2023-05-10T06:10:46.380Z,70.53
2023-05-10T06:13:13.489Z,65.97
2023-05-10T06:15:41.063Z,73.55
2023-05-10T06:18:08.405Z,78.13
2023-05-10T06:20:35.709Z,72.60
2023-05-10T06:23:03.169Z,63.67
2023-05-10T06:25:30.466Z,70.60
2023-05-10T06:27:58.917Z,68.45
2023-05-10T06:30:30.385Z,67.05
2023-05-10T06:32:58.045Z,67.30
2023-05-10T06:35:25.538Z,68.25
2023-05-10T06:37:52.936Z,68.68
2023-05-10T06:40:20.618Z,55.85
2023-05-10T06:42:48.440Z,56.63
2023-05-10T06:45:16.509Z,57.40
2023-05-10T06:47:44.129Z,52.00
2023-05-10T06:50:12.559Z,47.70
2023-05-10T06:52:40.224Z,50.67
2023-05-10T06:55:07.982Z,43.30
2023-05-10T06:57:35.479Z,32.47
2023-05-10T07:00:05.159Z,26.00
2023-05-10T07:02:32.605Z,28.67
2023-05-10T07:05:14.762Z,31.38
2023-05-10T07:07:42.062Z,22.13
2023-05-10T07:10:09.685Z,26.30
2023-05-10T07:12:36.863Z,20.35
2023-05-10T07:15:04.275Z,23.50
2023-05-10T07:17:31.675Z,22.05
2023-05-10T07:19:59.309Z,24.17
2023-05-10T07:22:26.606Z,21.07
2023-05-10T07:24:53.695Z,20.48
2023-05-10T07:27:20.637Z,19.08
2023-05-10T07:29:47.853Z,22.00
2023-05-10T07:32:15.167Z,20.30
2023-05-10T07:34:42.354Z,16.93
2023-05-10T07:37:09.469Z,14.02
2023-05-10T07:39:36.350Z,17.02
2023-05-10T07:42:03.908Z,15.02
2023-05-10T07:44:31.296Z,18.10
2023-05-10T07:46:58.591Z,14.80
2023-05-10T07:49:25.908Z,16.67
2023-05-10T07:51:53.165Z,16.90
2023-05-10T07:54:20.432Z,15.40
2023-05-10T07:56:48.340Z,14.43
2023-05-10T07:59:18.928Z,17.23
2023-05-10T08:01:45.900Z,16.05
2023-05-10T08:04:13.010Z,17.58
2023-05-10T08:06:40.793Z,16.25
2023-05-10T08:09:07.686Z,15.85
2023-05-10T08:11:35.314Z,16.77
2023-05-10T08:14:02.719Z,16.98
2023-05-10T08:16:30.166Z,22.65
2023-05-10T08:18:57.357Z,19.73
2023-05-10T08:21:24.314Z,19.42
2023-05-10T08:23:51.232Z,15.90
2023-05-10T08:26:18.564Z,23.00
2023-05-10T08:28:45.712Z,21.42
2023-05-10T08:31:12.949Z,16.92
2023-05-10T08:33:41.534Z,15.75
2023-05-10T08:36:09.365Z,19.80
2023-05-10T08:38:36.315Z,16.90
2023-05-10T08:41:04.148Z,18.92
2023-05-10T08:43:31.740Z,23.63
2023-05-10T08:46:02.281Z,16.80
2023-05-10T08:48:30.907Z,19.73
2023-05-10T08:51:01.704Z,17.15
2023-05-10T08:53:31.820Z,18.40
2023-05-10T08:55:59.244Z,19.10
2023-05-10T08:58:26.952Z,19.83
2023-05-10T09:00:54.647Z,19.20
2023-05-10T09:03:22.051Z,17.15
2023-05-10T09:05:50.145Z,16.83
2023-05-10T09:08:18.335Z,17.20
2023-05-10T09:10:48.257Z,16.90
2023-05-10T09:13:16.631Z,16.37
2023-05-10T09:15:45.976Z,18.65
2023-05-10T09:18:13.607Z,17.75
2023-05-10T09:20:41.148Z,17.02
2023-05-10T09:23:08.338Z,15.40
2023-05-10T09:25:35.916Z,19.97
2023-05-10T09:28:03.101Z,19.27
2023-05-10T09:30:31.596Z,22.10
2023-05-10T09:33:00.741Z,17.67
2023-05-10T09:35:31.151Z,15.95
2023-05-10T09:38:00.629Z,21.43
2023-05-10T09:40:29.397Z,32.58
2023-05-10T09:43:18.047Z,16.63
2023-05-10T09:45:45.304Z,34.17
2023-05-10T09:48:12.678Z,21.63
2023-05-10T09:50:40.155Z,18.30
2023-05-10T09:53:07.729Z,19.02
2023-05-10T09:55:41.397Z,20.42
2023-05-10T09:58:11.626Z,18.20
2023-05-10T10:00:41.185Z,16.75
2023-05-10T10:03:16.188Z,14.67
2023-05-10T10:05:44.723Z,15.73
2023-05-10T10:08:12.846Z,20.40
2023-05-10T10:10:41.523Z,18.10
2023-05-10T10:13:09.202Z,14.35
2023-05-10T10:15:36.677Z,15.03
2023-05-10T10:18:07.841Z,13.05
2023-05-10T10:20:34.874Z,20.00
2023-05-10T10:23:02.065Z,18.95
2023-05-10T10:25:29.489Z,21.42
2023-05-10T10:28:10.562Z,14.77
2023-05-10T10:30:47.017Z,11.48
2023-05-10T10:33:31.896Z,13.35
2023-05-10T10:36:04.198Z,12.43
2023-05-10T10:38:49.203Z,9.93
2023-05-10T10:41:29.590Z,9.23
2023-05-10T10:44:27.796Z,10.85
2023-05-10T10:47:23.996Z,12.25
2023-05-10T10:49:52.267Z,12.00
2023-05-10T10:52:36.449Z,11.35
2023-05-10T10:55:03.967Z,10.67
2023-05-10T10:57:45.612Z,12.70
2023-05-10T11:00:28.195Z,11.73
2023-05-10T11:02:55.503Z,10.93
2023-05-10T11:05:25.884Z,11.27
2023-05-10T11:07:58.151Z,11.83
2023-05-10T11:10:26.693Z,11.25
2023-05-10T11:13:05.055Z,9.68
2023-05-10T11:15:39.954Z,10.95
2023-05-10T11:18:21.227Z,10.23
2023-05-10T11:20:52.771Z,9.53
2023-05-10T11:23:21.017Z,9.82
2023-05-10T11:25:50.661Z,9.52
2023-05-10T11:28:20.847Z,13.30
2023-05-10T11:30:48.441Z,9.38
2023-05-10T11:33:20.403Z,11.37
2023-05-10T11:35:47.743Z,12.80
2023-05-10T11:38:15.167Z,10.95
2023-05-10T11:40:42.809Z,9.90
2023-05-10T11:43:11.371Z,12.63
2023-05-10T11:45:39.027Z,11.80
2023-05-10T11:48:06.481Z,10.43
2023-05-10T11:50:34.046Z,10.43
2023-05-10T11:53:01.485Z,14.80
2023-05-10T11:55:28.436Z,8.38
2023-05-10T11:57:55.958Z,11.57
2023-05-10T12:00:23.491Z,8.27
2023-05-10T12:02:51.310Z,12.32
2023-05-10T12:05:18.789Z,8.65
2023-05-10T12:07:46.147Z,8.57
2023-05-10T12:10:19.089Z,8.83
2023-05-10T12:12:49.068Z,11.20
2023-05-10T12:15:21.047Z,10.07
2023-05-10T12:17:48.741Z,13.85
2023-05-10T12:20:17.116Z,11.23
2023-05-10T12:22:50.045Z,10.47
2023-05-10T12:25:17.687Z,8.65
2023-05-10T12:27:53.235Z,11.60
2023-05-10T12:30:22.138Z,8.63
2023-05-10T12:32:49.574Z,8.98
2023-05-10T12:35:17.301Z,10.00
2023-05-10T12:37:44.756Z,10.95
2023-05-10T12:40:12.602Z,8.48
2023-05-10T12:42:40.837Z,10.15
2023-05-10T12:45:09.463Z,9.80
2023-05-10T12:47:37.148Z,10.23
2023-05-10T12:50:04.765Z,10.02
2023-05-10T12:52:33.059Z,10.40
2023-05-10T12:55:01.023Z,11.93
2023-05-10T12:57:28.890Z,10.82
2023-05-10T12:59:56.646Z,11.57
2023-05-10T13:02:24.109Z,13.02
2023-05-10T13:04:51.502Z,13.85
2023-05-10T13:07:19.051Z,13.27
2023-05-10T13:09:46.357Z,15.07
2023-05-10T13:12:13.629Z,11.60
2023-05-10T13:14:41.666Z,13.15
2023-05-10T13:17:09.081Z,13.88
2023-05-10T13:19:36.476Z,16.42
2023-05-10T13:22:03.974Z,14.75
2023-05-10T13:24:31.268Z,12.17
2023-05-10T13:26:58.113Z,23.13
2023-05-10T13:29:25.125Z,15.95
2023-05-10T13:31:52.013Z,19.23
2023-05-10T13:34:21.427Z,16.38
2023-05-10T13:36:49.068Z,20.80
2023-05-10T13:39:16.052Z,14.98
2023-05-10T13:41:43.394Z,20.50
2023-05-10T13:44:10.519Z,23.50
2023-05-10T13:46:38.873Z,21.05
2023-05-10T13:49:06.031Z,24.63
2023-05-10T13:51:33.407Z,30.60
2023-05-10T13:54:00.297Z,22.45
2023-05-10T13:56:27.728Z,22.08
2023-05-10T13:58:55.004Z,21.75
2023-05-10T14:01:22.339Z,20.80
2023-05-10T14:03:49.774Z,19.58
2023-05-10T14:06:16.701Z,21.20
2023-05-10T14:08:43.540Z,20.52
2023-05-10T14:11:10.797Z,34.30
2023-05-10T14:13:38.185Z,20.13
2023-05-10T14:16:05.622Z,22.13
2023-05-10T14:18:32.912Z,23.25
2023-05-10T14:21:00.213Z,22.65
2023-05-10T14:23:27.316Z,19.60
2023-05-10T14:25:54.666Z,19.97
2023-05-10T14:28:23.563Z,21.77
2023-05-10T14:30:51.230Z,22.38
2023-05-10T14:33:18.898Z,20.60
2023-05-10T14:35:47.618Z,23.77
2023-05-10T14:38:15.131Z,20.10
2023-05-10T14:40:42.801Z,21.70
2023-05-10T14:43:10.222Z,20.73
2023-05-10T14:45:37.531Z,18.98
2023-05-10T14:48:05.860Z,19.95
2023-05-10T14:50:36.930Z,19.00
2023-05-10T14:53:04.939Z,17.92
2023-05-10T14:55:32.186Z,19.60
2023-05-10T14:57:59.746Z,17.70
2023-05-10T15:00:26.920Z,15.93
2023-05-10T15:02:54.569Z,15.40
2023-05-10T15:05:22.314Z,14.48
2023-05-10T15:07:50.261Z,14.95
2023-05-10T15:10:18.750Z,15.07
2023-05-10T15:12:46.023Z,15.52
2023-05-10T15:15:13.416Z,16.73
2023-05-10T15:17:40.279Z,15.65
2023-05-10T15:20:07.874Z,15.30
2023-05-10T15:22:35.146Z,15.45
2023-05-10T15:25:02.596Z,15.93
2023-05-10T15:27:29.891Z,16.47
2023-05-10T15:29:57.191Z,15.68
2023-05-10T15:32:24.424Z,16.30
2023-05-10T15:34:52.021Z,15.90
2023-05-10T15:37:19.268Z,15.52
2023-05-10T15:39:46.121Z,14.37
2023-05-10T15:42:13.515Z,15.30
2023-05-10T15:44:40.341Z,17.40
2023-05-10T15:47:07.739Z,17.15
2023-05-10T15:49:35.058Z,14.63
2023-05-10T15:52:02.074Z,17.17
2023-05-10T15:54:29.371Z,20.08
2023-05-10T15:56:56.494Z,14.60
2023-05-10T15:59:23.703Z,19.48
2023-05-10T16:01:51.147Z,15.57
2023-05-10T16:04:18.569Z,14.53
2023-05-10T16:06:45.439Z,19.17
2023-05-10T16:09:12.671Z,19.48
2023-05-10T16:11:39.993Z,15.65
2023-05-10T16:14:07.312Z,15.55
2023-05-10T16:16:34.936Z,14.00
2023-05-10T16:19:03.878Z,13.98
2023-05-10T16:21:34.617Z,17.05
2023-05-10T16:24:03.152Z,14.48
2023-05-10T16:26:30.621Z,13.20
2023-05-10T16:28:57.865Z,15.47
2023-05-10T16:31:24.775Z,14.32
2023-05-10T16:33:52.038Z,15.52
2023-05-10T16:36:19.293Z,14.73
2023-05-10T16:38:46.639Z,15.05
2023-05-10T16:41:14.008Z,11.57
2023-05-10T16:43:41.194Z,13.57
2023-05-10T16:46:12.160Z,16.15
2023-05-10T16:48:39.466Z,13.02
2023-05-10T16:51:06.423Z,13.55
2023-05-10T16:53:33.846Z,15.97
2023-05-10T16:56:01.279Z,12.50
2023-05-10T16:58:28.608Z,15.32
2023-05-10T17:00:55.698Z,14.88
2023-05-10T17:03:22.825Z,14.60
2023-05-10T17:05:49.942Z,20.73
2023-05-10T17:08:17.063Z,21.55
2023-05-10T17:10:43.946Z,35.40
2023-05-10T17:13:10.944Z,16.20
2023-05-10T17:15:39.187Z,14.00
2023-05-10T17:18:07.560Z,15.70
2023-05-10T17:20:34.673Z,13.43
2023-05-10T17:23:03.454Z,15.02
2023-05-10T17:25:30.637Z,14.25
2023-05-10T17:27:57.502Z,16.05
2023-05-10T17:30:27.692Z,15.30
2023-05-10T17:32:55.244Z,21.52
2023-05-10T17:35:22.458Z,14.35
2023-05-10T17:37:49.336Z,17.52
2023-05-10T17:40:16.382Z,12.55
2023-05-10T17:42:43.319Z,12.17
2023-05-10T17:45:10.719Z,12.52
2023-05-10T17:47:38.093Z,15.80
2023-05-10T17:50:06.077Z,13.90
2023-05-10T17:52:33.664Z,16.38
2023-05-10T17:55:00.910Z,13.67
2023-05-10T17:57:28.346Z,18.13
2023-05-10T17:59:55.987Z,24.70
2023-05-10T18:02:23.285Z,16.17
2023-05-10T18:04:50.649Z,17.23
2023-05-10T18:07:18.023Z,15.37
2023-05-10T18:09:45.392Z,15.15
2023-05-10T18:12:12.670Z,18.00
2023-05-10T18:14:41.478Z,20.55
2023-05-10T18:17:09.692Z,18.60
2023-05-10T18:19:37.013Z,20.93
2023-05-10T18:22:04.324Z,15.43
2023-05-10T18:24:39.164Z,17.35
2023-05-10T18:27:09.185Z,25.10
2023-05-10T18:29:36.998Z,24.08
2023-05-10T18:32:04.238Z,18.03
2023-05-10T18:34:31.072Z,17.77
2023-05-10T18:36:58.075Z,22.80
2023-05-10T18:39:25.035Z,18.15
2023-05-10T18:41:52.083Z,17.80
2023-05-10T18:44:19.497Z,15.73
2023-05-10T18:46:46.826Z,17.90
2023-05-10T18:49:14.090Z,14.48
2023-05-10T18:51:41.383Z,15.05
2023-05-10T18:54:08.690Z,15.23
2023-05-10T18:56:35.817Z,15.20
2023-05-10T18:59:03.714Z,41.92
2023-05-10T19:01:31.029Z,22.60
2023-05-10T19:03:58.139Z,16.40
2023-05-10T19:06:24.953Z,15.75
2023-05-10T19:08:52.239Z,16.47
2023-05-10T19:11:19.694Z,16.35
2023-05-10T19:13:46.510Z,17.10
2023-05-10T19:16:23.943Z,14.60
2023-05-10T19:18:51.325Z,14.85
2023-05-10T19:21:19.031Z,18.40
2023-05-10T19:23:46.609Z,23.65
2023-05-10T19:26:13.878Z,15.70
2023-05-10T19:28:41.248Z,17.10
2023-05-10T19:31:08.778Z,16.70
2023-05-10T19:33:36.625Z,15.23
2023-05-10T19:36:04.394Z,23.80
2023-05-10T19:38:31.653Z,24.25
2023-05-10T19:40:59.513Z,16.52
2023-05-10T19:43:27.709Z,17.60
2023-05-10T19:45:55.799Z,23.07
2023-05-10T19:48:23.003Z,18.38
2023-05-10T19:50:50.232Z,19.30
2023-05-10T19:53:17.438Z,16.42
2023-05-10T19:55:44.349Z,17.50
2023-05-10T19:58:11.886Z,15.53
2023-05-10T20:00:38.775Z,20.30
2023-05-10T20:03:07.707Z,18.48
2023-05-10T20:05:36.325Z,17.65
2023-05-10T20:08:03.592Z,18.70
2023-05-10T20:10:31.002Z,16.70
2023-05-10T20:12:59.048Z,18.10
2023-05-10T20:15:27.305Z,19.73
2023-05-10T20:17:54.415Z,20.30
2023-05-10T20:20:21.926Z,16.38
2023-05-10T20:22:49.419Z,18.37
2023-05-10T20:25:17.497Z,21.10
2023-05-10T20:27:45.040Z,23.67
2023-05-10T20:30:12.655Z,26.02
2023-05-10T20:32:39.967Z,21.90
2023-05-10T20:35:07.450Z,21.70
2023-05-10T20:37:34.821Z,25.75
2023-05-10T20:40:02.127Z,21.35
2023-05-10T20:42:29.415Z,27.48
2023-05-10T20:44:56.930Z,26.80
2023-05-10T20:47:24.432Z,23.97
2023-05-10T20:49:51.729Z,25.55
2023-05-10T20:52:18.555Z,23.70
2023-05-10T20:54:45.942Z,24.15
2023-05-10T20:57:13.246Z,25.30
2023-05-10T20:59:40.666Z,24.33
2023-05-10T21:02:07.946Z,19.75
2023-05-10T21:04:35.015Z,19.52
2023-05-10T21:07:02.334Z,20.02
2023-05-10T21:09:29.682Z,23.85
2023-05-10T21:11:57.001Z,25.40
2023-05-10T21:14:24.266Z,30.00
2023-05-10T21:16:51.616Z,29.95
2023-05-10T21:19:18.930Z,25.38
2023-05-10T21:21:46.475Z,28.13
2023-05-10T21:24:13.913Z,27.20
2023-05-10T21:26:41.212Z,29.70
2023-05-10T21:29:08.956Z,27.63
2023-05-10T21:31:36.548Z,23.35
2023-05-10T21:34:03.573Z,28.08
2023-05-10T21:36:30.395Z,37.87
2023-05-10T21:38:57.677Z,34.80
2023-05-10T21:41:24.582Z,38.05
2023-05-10T21:43:51.690Z,24.90
2023-05-10T21:46:19.531Z,42.42
2023-05-10T21:48:46.870Z,34.43
2023-05-10T21:51:14.575Z,35.22
2023-05-10T21:53:41.838Z,28.58
2023-05-10T21:56:09.057Z,26.40
2023-05-10T21:58:36.537Z,27.35
2023-05-10T22:01:03.919Z,26.67
2023-05-10T22:03:31.537Z,28.25
2023-05-10T22:05:58.731Z,32.85
2023-05-10T22:08:26.179Z,29.45
2023-05-10T22:10:53.402Z,36.25
2023-05-10T22:13:20.731Z,25.87
2023-05-10T22:15:47.596Z,30.15
2023-05-10T22:18:14.897Z,29.02
2023-05-10T22:20:43.591Z,27.17
2023-05-10T22:23:10.889Z,31.95
2023-05-10T22:25:38.194Z,31.77
2023-05-10T22:28:05.438Z,27.58
2023-05-10T22:30:33.275Z,27.48
2023-05-10T22:33:00.738Z,28.08
2023-05-10T22:35:27.994Z,27.77
2023-05-10T22:37:55.201Z,29.30
2023-05-10T22:40:22.802Z,25.20
2023-05-10T22:42:49.596Z,28.17
2023-05-10T22:45:16.914Z,30.52
2023-05-10T22:47:44.223Z,31.02
2023-05-10T22:50:14.018Z,32.83
2023-05-10T22:52:40.870Z,27.50
2023-05-10T22:55:08.077Z,26.77
2023-05-10T22:57:35.516Z,30.05
2023-05-10T23:00:04.443Z,29.52
2023-05-10T23:02:32.096Z,29.73
2023-05-10T23:04:59.309Z,28.00
2023-05-10T23:07:26.540Z,36.47
2023-05-10T23:09:53.701Z,33.78
2023-05-10T23:12:20.666Z,32.50
2023-05-10T23:14:47.939Z,24.33
2023-05-10T23:17:15.421Z,32.35
2023-05-10T23:19:42.652Z,32.70
2023-05-10T23:22:10.012Z,29.95
2023-05-10T23:24:37.373Z,33.63
2023-05-10T23:27:04.601Z,32.23
2023-05-10T23:29:32.573Z,35.33
2023-05-10T23:31:59.795Z,30.83
2023-05-10T23:34:27.021Z,33.08
2023-05-10T23:36:54.210Z,31.23
2023-05-10T23:39:21.716Z,28.43
2023-05-10T23:41:48.479Z,31.70
2023-05-10T23:44:15.493Z,32.22
2023-05-10T23:46:42.734Z,28.70
2023-05-10T23:49:09.625Z,28.75
2023-05-10T23:51:36.804Z,29.13
2023-05-10T23:54:04.321Z,33.60
2023-05-10T23:56:31.521Z,32.33
2023-05-10T23:58:58.317Z,33.45
